createdAt,value
2023-04-01T00:00:53.048Z,17.00
2023-04-01T00:03:55.457Z,16.99
2023-04-01T00:06:57.663Z,16.99
2023-04-01T00:09:59.030Z,16.97
2023-04-01T00:13:00.430Z,16.98
2023-04-01T00:16:03.410Z,16.97
2023-04-01T00:19:05.443Z,16.96
2023-04-01T00:22:07.083Z,16.95
2023-04-01T00:25:08.663Z,16.95
2023-04-01T00:28:10.594Z,16.95
2023-04-01T00:31:12.050Z,16.93
2023-04-01T00:34:13.434Z,16.94
2023-04-01T00:37:14.846Z,16.92
2023-04-01T00:40:42.619Z,16.92
2023-04-01T00:43:45.964Z,16.92
2023-04-01T00:46:47.677Z,16.91
2023-04-01T00:49:50.934Z,16.89
2023-04-01T00:52:53.080Z,16.89
2023-04-01T00:55:57.843Z,16.89
2023-04-01T00:59:05.352Z,16.88
2023-04-01T01:02:09.599Z,16.87
2023-04-01T01:05:15.408Z,16.87
2023-04-01T01:08:22.721Z,16.90
2023-04-01T01:11:37.097Z,16.88
2023-04-01T01:14:57.588Z,16.88
2023-04-01T01:18:05.329Z,16.85
2023-04-01T01:21:20.889Z,16.84
2023-04-01T01:24:22.249Z,16.85
2023-04-01T01:27:24.113Z,16.84
2023-04-01T01:30:51.371Z,16.83
2023-04-01T01:34:16.418Z,16.84
2023-04-01T01:37:20.008Z,16.83
2023-04-01T01:40:22.297Z,16.83
2023-04-01T01:43:31.129Z,16.83
2023-04-01T01:46:32.982Z,16.82
2023-04-01T01:49:36.516Z,16.81
2023-04-01T01:52:38.037Z,16.83
2023-04-01T01:55:41.443Z,16.82
2023-04-01T01:58:49.064Z,16.82
2023-04-01T02:01:56.496Z,16.82
2023-04-01T02:04:58.477Z,16.82
2023-04-01T02:08:08.176Z,16.81
2023-04-01T02:11:11.431Z,16.80
2023-04-01T02:14:17.616Z,16.80
2023-04-01T02:17:21.107Z,16.80
2023-04-01T02:20:24.425Z,16.80
2023-04-01T02:23:26.443Z,16.80
2023-04-01T02:26:28.118Z,16.81
2023-04-01T02:29:30.897Z,16.80
2023-04-01T02:32:34.092Z,16.81
2023-04-01T02:35:37.816Z,16.80
2023-04-01T02:38:39.742Z,16.80
2023-04-01T02:41:41.795Z,16.79
2023-04-01T02:44:43.283Z,16.79
2023-04-01T02:47:44.712Z,16.79
2023-04-01T02:50:46.564Z,16.78
2023-04-01T02:53:47.978Z,16.78
2023-04-01T02:56:49.538Z,16.78
2023-04-01T02:59:51.056Z,16.78
2023-04-01T03:02:53.135Z,16.76
2023-04-01T03:05:57.090Z,16.77
2023-04-01T03:08:58.524Z,16.77
2023-04-01T03:12:01.637Z,16.77
2023-04-01T03:15:10.766Z,16.77
2023-04-01T03:18:14.180Z,16.76
2023-04-01T03:21:23.189Z,16.75
2023-04-01T03:24:24.944Z,16.75
2023-04-01T03:27:26.415Z,16.75
2023-04-01T03:30:27.908Z,16.74
2023-04-01T03:33:29.425Z,16.74
2023-04-01T03:36:30.867Z,16.74
2023-04-01T03:39:32.438Z,16.73
2023-04-01T03:42:33.911Z,16.73
2023-04-01T03:45:35.467Z,16.71
2023-04-01T03:48:37.297Z,16.71
2023-04-01T03:51:39.826Z,16.71
2023-04-01T03:54:41.317Z,16.70
2023-04-01T03:57:42.833Z,16.70
2023-04-01T04:00:51.933Z,16.71
2023-04-01T04:03:53.482Z,16.71
2023-04-01T04:06:56.550Z,16.71
2023-04-01T04:09:59.282Z,16.70
2023-04-01T04:13:00.702Z,16.70
2023-04-01T04:16:04.755Z,16.69
2023-04-01T04:19:07.357Z,16.69
2023-04-01T04:22:08.749Z,16.69
2023-04-01T04:25:10.281Z,16.69
2023-04-01T04:28:12.384Z,16.69
2023-04-01T04:31:18.917Z,16.70
2023-04-01T04:34:20.479Z,16.67
2023-04-01T04:37:21.905Z,16.67
2023-04-01T04:40:23.428Z,16.65
2023-04-01T04:43:24.907Z,16.66
2023-04-01T04:46:26.794Z,16.65
2023-04-01T04:49:35.070Z,16.64
2023-04-01T04:52:41.201Z,16.64
2023-04-01T04:55:46.739Z,16.65
2023-04-01T04:59:00.325Z,16.64
2023-04-01T05:02:13.982Z,16.63
2023-04-01T05:05:15.389Z,16.62
2023-04-01T05:08:17.009Z,16.61
2023-04-01T05:11:19.672Z,16.61
2023-04-01T05:14:21.377Z,16.62
2023-04-01T05:17:39.656Z,16.61
2023-04-01T05:20:46.679Z,16.61
2023-04-01T05:23:48.447Z,16.61
2023-04-01T05:26:49.853Z,16.61
2023-04-01T05:29:51.329Z,16.62
2023-04-01T05:33:14.083Z,16.62
2023-04-01T05:36:16.695Z,16.62
2023-04-01T05:39:19.097Z,16.62
2023-04-01T05:42:20.901Z,16.61
2023-04-01T05:45:22.919Z,16.60
2023-04-01T05:48:56.371Z,16.60
2023-04-01T05:52:00.135Z,16.59
2023-04-01T05:55:02.929Z,16.58
2023-04-01T05:58:04.632Z,16.57
2023-04-01T06:01:11.485Z,16.56
2023-04-01T06:04:18.795Z,16.56
2023-04-01T06:07:21.114Z,16.57
2023-04-01T06:10:24.550Z,16.49
2023-04-01T06:13:42.977Z,16.44
2023-04-01T06:16:44.376Z,16.38
2023-04-01T06:19:45.812Z,16.31
2023-04-01T06:22:55.388Z,16.26
2023-04-01T06:26:09.906Z,16.19
2023-04-01T06:29:18.412Z,16.16
2023-04-01T06:32:28.607Z,16.13
2023-04-01T06:35:39.448Z,16.09
2023-04-01T06:39:05.550Z,16.07
2023-04-01T06:42:07.015Z,16.04
2023-04-01T06:45:11.729Z,16.01
2023-04-01T06:48:54.861Z,16.03
2023-04-01T06:52:46.379Z,16.07
2023-04-01T06:56:15.981Z,16.08
2023-04-01T06:59:33.427Z,16.10
2023-04-01T07:02:40.108Z,16.13
2023-04-01T07:05:42.670Z,16.14
2023-04-01T07:08:45.614Z,16.18
2023-04-01T07:11:47.286Z,16.19
2023-04-01T07:15:32.103Z,16.20
2023-04-01T07:18:41.518Z,16.20
2023-04-01T07:21:51.982Z,16.20
2023-04-01T07:25:20.378Z,16.19
2023-04-01T07:28:31.945Z,16.19
2023-04-01T07:31:40.441Z,16.18
2023-04-01T07:34:41.899Z,16.21
2023-04-01T07:37:59.648Z,16.25
2023-04-01T07:41:07.136Z,16.30
2023-04-01T07:44:15.798Z,16.36
2023-04-01T07:47:42.388Z,16.39
2023-04-01T07:50:43.798Z,16.42
2023-04-01T07:54:08.434Z,16.44
2023-04-01T07:57:23.968Z,16.45
2023-04-01T08:00:33.110Z,16.45
2023-04-01T08:04:04.925Z,16.46
2023-04-01T08:07:06.642Z,16.47
2023-04-01T08:10:10.678Z,16.51
2023-04-01T08:13:39.558Z,16.53
2023-04-01T08:17:05.611Z,16.57
2023-04-01T08:20:19.461Z,16.60
2023-04-01T08:23:41.574Z,16.62
2023-04-01T08:26:46.275Z,16.63
2023-04-01T08:30:04.727Z,16.64
2023-04-01T08:33:14.839Z,16.65
2023-04-01T08:36:16.288Z,16.65
2023-04-01T08:39:20.505Z,16.66
2023-04-01T08:42:28.920Z,16.67
2023-04-01T08:45:56.340Z,16.67
2023-04-01T08:49:16.538Z,16.67
2023-04-01T08:52:18.014Z,16.67
2023-04-01T08:55:25.642Z,16.69
2023-04-01T08:58:58.912Z,16.70
2023-04-01T09:02:09.729Z,16.70
2023-04-01T09:05:37.890Z,16.70
2023-04-01T09:08:59.890Z,16.70
2023-04-01T09:12:20.796Z,16.72
2023-04-01T09:15:43.117Z,16.70
2023-04-01T09:18:57.452Z,16.72
2023-04-01T09:22:11.375Z,16.71
2023-04-01T09:25:42.506Z,16.73
2023-04-01T09:28:50.771Z,16.73
2023-04-01T09:32:05.315Z,16.75
2023-04-01T09:35:22.517Z,16.75
2023-04-01T09:38:30.635Z,16.76
2023-04-01T09:41:34.093Z,16.76
2023-04-01T09:44:55.570Z,16.75
2023-04-01T09:48:08.864Z,16.75
2023-04-01T09:51:16.244Z,16.76
2023-04-01T09:54:32.122Z,16.76
2023-04-01T09:57:39.874Z,16.77
2023-04-01T10:01:09.620Z,16.79
2023-04-01T10:04:11.140Z,16.81
2023-04-01T10:07:19.468Z,16.81
2023-04-01T10:10:37.096Z,16.82
2023-04-01T10:13:45.597Z,16.85
2023-04-01T10:16:47.067Z,16.85
2023-04-01T10:20:00.710Z,16.80
2023-04-01T10:23:08.018Z,16.75
2023-04-01T10:26:19.246Z,16.70
2023-04-01T10:29:25.391Z,16.69
2023-04-01T10:32:31.951Z,16.68
2023-04-01T10:35:53.475Z,16.67
2023-04-01T10:39:13.572Z,16.67
2023-04-01T10:42:21.148Z,16.66
2023-04-01T10:45:47.219Z,16.66
2023-04-01T10:48:51.626Z,16.64
2023-04-01T10:51:53.078Z,16.65
2023-04-01T10:55:29.777Z,16.64
2023-04-01T10:58:55.722Z,16.63
2023-04-01T11:02:34.408Z,16.63
2023-04-01T11:06:12.948Z,16.63
2023-04-01T11:09:17.374Z,16.62
2023-04-01T11:12:39.149Z,16.62
2023-04-01T11:15:49.847Z,16.62
2023-04-01T11:19:13.129Z,16.63
2023-04-01T11:22:33.369Z,16.62
2023-04-01T11:25:45.714Z,16.63
2023-04-01T11:29:05.709Z,16.64
2023-04-01T11:32:19.330Z,16.65
2023-04-01T11:35:33.996Z,16.64
2023-04-01T11:38:55.421Z,16.64
2023-04-01T11:42:27.169Z,16.64
2023-04-01T11:46:12.930Z,16.64
2023-04-01T11:49:24.030Z,16.65
2023-04-01T11:52:39.844Z,16.65
2023-04-01T11:55:41.852Z,16.64
2023-04-01T11:58:59.796Z,16.65
2023-04-01T12:02:04.749Z,16.66
2023-04-01T12:05:07.180Z,16.68
2023-04-01T12:08:27.708Z,16.70
2023-04-01T12:11:46.278Z,16.70
2023-04-01T12:15:00.112Z,16.69
2023-04-01T12:18:13.089Z,16.71
2023-04-01T12:21:19.624Z,16.70
2023-04-01T12:24:50.392Z,16.70
2023-04-01T12:28:10.500Z,16.70
2023-04-01T12:31:14.971Z,16.71
2023-04-01T12:34:42.724Z,16.70
2023-04-01T12:37:51.833Z,16.70
2023-04-01T12:41:12.170Z,16.70
2023-04-01T12:44:35.317Z,16.70
2023-04-01T12:47:55.788Z,16.70
2023-04-01T12:51:06.247Z,16.72
2023-04-01T12:54:10.530Z,16.72
2023-04-01T12:57:30.801Z,16.74
2023-04-01T13:00:32.248Z,16.77
2023-04-01T13:03:45.643Z,16.80
2023-04-01T13:07:05.796Z,16.81
2023-04-01T13:10:27.484Z,16.83
2023-04-01T13:13:47.348Z,16.83
2023-04-01T13:17:04.018Z,16.82
2023-04-01T13:20:11.468Z,16.82
2023-04-01T13:23:22.081Z,16.83
2023-04-01T13:26:23.467Z,16.82
2023-04-01T13:29:37.266Z,16.83
2023-04-01T13:32:48.068Z,16.83
2023-04-01T13:35:55.433Z,16.83
2023-04-01T13:39:01.756Z,16.83
2023-04-01T13:42:03.419Z,16.84
2023-04-01T13:45:17.224Z,16.84
2023-04-01T13:48:40.826Z,16.85
2023-04-01T13:51:42.283Z,16.87
2023-04-01T13:55:15.495Z,16.87
2023-04-01T13:58:16.926Z,16.88
2023-04-01T14:01:21.260Z,16.89
2023-04-01T14:04:49.219Z,16.91
2023-04-01T14:07:50.998Z,16.91
2023-04-01T14:11:01.406Z,16.93
2023-04-01T14:14:02.817Z,16.94
2023-04-01T14:17:04.227Z,16.97
2023-04-01T14:20:21.572Z,16.97
2023-04-01T14:23:42.345Z,17.00
2023-04-01T14:26:43.696Z,17.01
2023-04-01T14:29:54.195Z,17.02
2023-04-01T14:33:14.632Z,17.03
2023-04-01T14:36:34.703Z,17.04
2023-04-01T14:39:54.466Z,17.04
2023-04-01T14:43:06.028Z,17.05
2023-04-01T14:46:26.548Z,17.05
2023-04-01T14:49:38.620Z,17.06
2023-04-01T14:52:41.298Z,17.07
2023-04-01T14:55:42.654Z,17.06
2023-04-01T14:58:51.102Z,17.06
2023-04-01T15:02:11.191Z,17.07
2023-04-01T15:05:12.674Z,17.08
2023-04-01T15:08:17.093Z,17.08
2023-04-01T15:11:22.634Z,17.09
2023-04-01T15:14:29.421Z,17.11
2023-04-01T15:17:44.432Z,17.11
2023-04-01T15:20:48.873Z,17.11
2023-04-01T15:23:53.430Z,17.14
2023-04-01T15:27:00.916Z,17.14
2023-04-01T15:30:05.535Z,17.15
2023-04-01T15:33:21.399Z,17.15
2023-04-01T15:36:25.708Z,17.15
2023-04-01T15:39:42.633Z,17.17
2023-04-01T15:43:02.516Z,17.19
2023-04-01T15:46:03.881Z,17.20
2023-04-01T15:49:24.021Z,17.22
2023-04-01T15:52:37.623Z,17.23
2023-04-01T15:56:00.998Z,17.28
2023-04-01T15:59:14.720Z,17.28
2023-04-01T16:02:32.236Z,17.26
2023-04-01T16:05:34.070Z,17.21
2023-04-01T16:08:54.324Z,17.22
2023-04-01T16:12:15.935Z,17.26
2023-04-01T16:15:20.451Z,17.29
2023-04-01T16:18:33.845Z,17.34
2023-04-01T16:21:36.640Z,17.38
2023-04-01T16:24:56.837Z,17.41
2023-04-01T16:28:17.079Z,17.38
2023-04-01T16:31:26.055Z,17.38
2023-04-01T16:34:36.789Z,17.38
2023-04-01T16:37:41.822Z,17.39
2023-04-01T16:40:43.563Z,17.39
2023-04-01T16:43:56.867Z,17.39
2023-04-01T16:47:00.172Z,17.39
2023-04-01T16:50:21.882Z,17.41
2023-04-01T16:53:42.338Z,17.41
2023-04-01T16:56:47.132Z,17.42
2023-04-01T16:59:49.001Z,17.43
2023-04-01T17:02:59.468Z,17.43
2023-04-01T17:06:13.039Z,17.45
2023-04-01T17:09:17.417Z,17.46
2023-04-01T17:12:23.013Z,17.46
2023-04-01T17:15:36.660Z,17.47
2023-04-01T17:18:56.861Z,17.46
2023-04-01T17:22:17.114Z,17.47
2023-04-01T17:25:31.104Z,17.48
2023-04-01T17:28:35.533Z,17.48
2023-04-01T17:31:42.930Z,17.49
2023-04-01T17:35:04.696Z,17.50
2023-04-01T17:38:12.041Z,17.50
2023-04-01T17:41:19.369Z,17.50
2023-04-01T17:44:31.738Z,17.53
2023-04-01T17:47:33.123Z,17.52
2023-04-01T17:50:47.975Z,17.53
2023-04-01T17:53:56.329Z,17.54
2023-04-01T17:57:05.415Z,17.55
2023-04-01T18:00:13.139Z,17.55
2023-04-01T18:03:25.116Z,17.56
2023-04-01T18:06:39.494Z,17.58
2023-04-01T18:09:53.846Z,17.59
2023-04-01T18:13:14.365Z,17.59
2023-04-01T18:16:39.147Z,17.61
2023-04-01T18:19:58.940Z,17.60
2023-04-01T18:23:25.678Z,17.60
2023-04-01T18:26:30.176Z,17.62
2023-04-01T18:29:41.199Z,17.62
2023-04-01T18:32:50.443Z,17.62
2023-04-01T18:35:54.180Z,17.62
2023-04-01T18:39:02.651Z,17.63
2023-04-01T18:42:09.415Z,17.63
2023-04-01T18:45:30.119Z,17.64
2023-04-01T18:48:51.995Z,17.65
2023-04-01T18:51:58.088Z,17.64
2023-04-01T18:55:05.843Z,17.66
2023-04-01T18:58:30.549Z,17.64
2023-04-01T19:01:38.892Z,17.64
2023-04-01T19:04:43.181Z,17.64
2023-04-01T19:07:54.632Z,17.65
2023-04-01T19:10:56.124Z,17.63
2023-04-01T19:14:27.041Z,17.60
2023-04-01T19:17:39.239Z,17.53
2023-04-01T19:20:46.200Z,17.44
2023-04-01T19:24:06.335Z,17.33
2023-04-01T19:27:07.665Z,17.23
2023-04-01T19:30:21.348Z,17.17
2023-04-01T19:33:22.743Z,17.22
2023-04-01T19:36:42.472Z,17.29
2023-04-01T19:39:52.544Z,17.32
2023-04-01T19:42:53.927Z,17.27
2023-04-01T19:45:59.598Z,17.34
2023-04-01T19:49:01.056Z,17.34
2023-04-01T19:52:04.384Z,17.35
2023-04-01T19:55:21.010Z,17.36
2023-04-01T19:58:41.071Z,17.36
2023-04-01T20:01:48.435Z,17.39
2023-04-01T20:04:57.136Z,17.30
2023-04-01T20:08:20.617Z,17.28
2023-04-01T20:11:31.318Z,17.28
2023-04-01T20:14:32.683Z,17.30
2023-04-01T20:17:34.085Z,17.30
2023-04-01T20:20:36.038Z,17.30
2023-04-01T20:23:43.760Z,17.28
2023-04-01T20:26:49.069Z,17.28
2023-04-01T20:29:56.863Z,17.27
2023-04-01T20:32:58.303Z,17.28
2023-04-01T20:36:02.765Z,17.28
2023-04-01T20:39:04.189Z,17.28
2023-04-01T20:42:18.556Z,17.29
2023-04-01T20:45:19.931Z,17.29
2023-04-01T20:48:40.354Z,17.29
2023-04-01T20:51:53.625Z,17.27
2023-04-01T20:55:13.340Z,17.28
2023-04-01T20:58:17.277Z,17.28
2023-04-01T21:01:30.897Z,17.27
2023-04-01T21:04:35.429Z,17.27
2023-04-01T21:07:39.912Z,17.26
2023-04-01T21:10:44.516Z,17.25
2023-04-01T21:13:51.903Z,17.25
2023-04-01T21:17:02.495Z,17.23
2023-04-01T21:20:22.821Z,17.22
2023-04-01T21:23:40.370Z,17.21
2023-04-01T21:26:44.890Z,17.19
2023-04-01T21:29:46.237Z,17.20
2023-04-01T21:32:53.683Z,17.17
2023-04-01T21:36:16.646Z,17.16
2023-04-01T21:39:24.758Z,17.16
2023-04-01T21:42:32.265Z,17.16
2023-04-01T21:45:53.070Z,17.15
2023-04-01T21:49:13.156Z,17.13
2023-04-01T21:52:14.485Z,17.12
2023-04-01T21:55:18.877Z,17.12
2023-04-01T21:58:39.083Z,17.10
2023-04-01T22:01:43.536Z,17.09
2023-04-01T22:04:44.924Z,17.08
2023-04-01T22:08:04.611Z,17.07
2023-04-01T22:11:05.971Z,17.05
2023-04-01T22:14:13.456Z,17.05
2023-04-01T22:17:24.032Z,17.04
2023-04-01T22:20:38.337Z,17.03
2023-04-01T22:23:42.655Z,17.01
2023-04-01T22:26:50.387Z,17.00
2023-04-01T22:30:04.297Z,16.98
2023-04-01T22:33:14.476Z,16.98
2023-04-01T22:36:24.883Z,16.98
2023-04-01T22:39:49.008Z,16.97
2023-04-01T22:42:54.777Z,16.97
2023-04-01T22:46:02.094Z,16.95
2023-04-01T22:49:03.502Z,16.96
2023-04-01T22:52:04.882Z,16.94
2023-04-01T22:55:11.274Z,16.95
2023-04-01T22:58:15.589Z,16.95
2023-04-01T23:01:21.866Z,16.94
2023-04-01T23:04:26.276Z,16.93
2023-04-01T23:07:27.650Z,16.92
2023-04-01T23:10:39.113Z,16.93
2023-04-01T23:13:42.435Z,16.90
2023-04-01T23:16:44.588Z,16.89
2023-04-01T23:20:06.805Z,16.89
2023-04-01T23:23:23.290Z,16.89
2023-04-01T23:26:24.678Z,16.88
2023-04-01T23:29:26.938Z,16.87
2023-04-01T23:32:28.540Z,16.88
2023-04-01T23:35:29.985Z,16.87
2023-04-01T23:38:33.061Z,16.86
2023-04-01T23:41:34.668Z,16.85
2023-04-01T23:44:37.119Z,16.85
2023-04-01T23:47:39.565Z,16.87
2023-04-01T23:50:41.382Z,16.85
2023-04-01T23:53:44.902Z,16.86
2023-04-01T23:56:49.012Z,16.84
